sensor_id;sensor_type;location;lat;lon;timestamp;pressure;altitude;pressure_sealevel;temperature
76898;BMP180;65856;52.178;21.176;2023-02-28T00:00:24;101925.80;;;-3.10
76898;BMP180;65856;52.178;21.176;2023-02-28T00:02:53;101922.40;;;-3.10
76898;BMP180;65856;52.178;21.176;2023-02-28T00:05:26;101926.60;;;-3.10
76898;BMP180;65856;52.178;21.176;2023-02-28T00:07:57;101920.40;;;-3.20
76898;BMP180;65856;52.178;21.176;2023-02-28T00:10:30;101925.40;;;-3.20
76898;BMP180;65856;52.178;21.176;2023-02-28T00:13:06;101925.00;;;-3.24
76898;BMP180;65856;52.178;21.176;2023-02-28T00:15:37;101930.40;;;-3.30
76898;BMP180;65856;52.178;21.176;2023-02-28T00:18:08;101933.40;;;-3.30
76898;BMP180;65856;52.178;21.176;2023-02-28T00:20:39;101931.60;;;-3.20
76898;BMP180;65856;52.178;21.176;2023-02-28T00:23:10;101930.00;;;-3.22
76898;BMP180;65856;52.178;21.176;2023-02-28T00:25:41;101932.40;;;-3.30
76898;BMP180;65856;52.178;21.176;2023-02-28T00:28:12;101939.40;;;-3.30
76898;BMP180;65856;52.178;21.176;2023-02-28T00:30:43;101941.60;;;-3.30
76898;BMP180;65856;52.178;21.176;2023-02-28T00:33:14;101933.20;;;-3.30
76898;BMP180;65856;52.178;21.176;2023-02-28T00:35:45;101934.80;;;-3.40
76898;BMP180;65856;52.178;21.176;2023-02-28T00:38:17;101935.00;;;-3.40
76898;BMP180;65856;52.178;21.176;2023-02-28T00:40:48;101933.60;;;-3.40
76898;BMP180;65856;52.178;21.176;2023-02-28T00:43:19;101933.60;;;-3.40
76898;BMP180;65856;52.178;21.176;2023-02-28T00:45:50;101936.40;;;-3.40
76898;BMP180;65856;52.178;21.176;2023-02-28T00:48:21;101936.40;;;-3.40
76898;BMP180;65856;52.178;21.176;2023-02-28T00:50:52;101937.40;;;-3.50
76898;BMP180;65856;52.178;21.176;2023-02-28T00:53:23;101933.40;;;-3.50
76898;BMP180;65856;52.178;21.176;2023-02-28T00:55:54;101933.80;;;-3.52
76898;BMP180;65856;52.178;21.176;2023-02-28T00:58:25;101932.00;;;-3.50
76898;BMP180;65856;52.178;21.176;2023-02-28T01:00:56;101935.20;;;-3.50
76898;BMP180;65856;52.178;21.176;2023-02-28T01:03:27;101932.20;;;-3.50
76898;BMP180;65856;52.178;21.176;2023-02-28T01:05:58;101935.00;;;-3.60
76898;BMP180;65856;52.178;21.176;2023-02-28T01:08:29;101933.60;;;-3.60
76898;BMP180;65856;52.178;21.176;2023-02-28T01:11:09;101926.40;;;-3.70
76898;BMP180;65856;52.178;21.176;2023-02-28T01:13:41;101926.80;;;-3.70
76898;BMP180;65856;52.178;21.176;2023-02-28T01:16:12;101923.80;;;-3.70
76898;BMP180;65856;52.178;21.176;2023-02-28T01:18:43;101925.20;;;-3.74
76898;BMP180;65856;52.178;21.176;2023-02-28T01:21:16;101921.20;;;-3.80
76898;BMP180;65856;52.178;21.176;2023-02-28T01:23:48;101928.40;;;-3.90
76898;BMP180;65856;52.178;21.176;2023-02-28T01:26:22;101924.40;;;-3.94
76898;BMP180;65856;52.178;21.176;2023-02-28T01:28:54;101927.00;;;-4.00
76898;BMP180;65856;52.178;21.176;2023-02-28T01:31:24;101927.00;;;-4.00
76898;BMP180;65856;52.178;21.176;2023-02-28T01:33:54;101928.20;;;-4.00
76898;BMP180;65856;52.178;21.176;2023-02-28T01:36:26;101920.80;;;-4.08
76898;BMP180;65856;52.178;21.176;2023-02-28T01:38:57;101925.40;;;-4.10
76898;BMP180;65856;52.178;21.176;2023-02-28T01:41:31;101929.40;;;-4.10
76898;BMP180;65856;52.178;21.176;2023-02-28T01:44:07;101932.80;;;-4.06
76898;BMP180;65856;52.178;21.176;2023-02-28T01:46:38;101933.00;;;-4.10
76898;BMP180;65856;52.178;21.176;2023-02-28T01:49:14;101938.80;;;-4.10
76898;BMP180;65856;52.178;21.176;2023-02-28T01:51:49;101941.80;;;-4.10
76898;BMP180;65856;52.178;21.176;2023-02-28T01:54:25;101939.20;;;-4.08
76898;BMP180;65856;52.178;21.176;2023-02-28T01:57:00;101937.60;;;-4.00
76898;BMP180;65856;52.178;21.176;2023-02-28T01:59:37;101943.20;;;-4.04
76898;BMP180;65856;52.178;21.176;2023-02-28T02:02:10;101936.40;;;-4.04
76898;BMP180;65856;52.178;21.176;2023-02-28T02:04:50;101938.40;;;-4.00
76898;BMP180;65856;52.178;21.176;2023-02-28T02:07:21;101932.60;;;-4.02
76898;BMP180;65856;52.178;21.176;2023-02-28T02:10:04;101930.80;;;-4.10
76898;BMP180;65856;52.178;21.176;2023-02-28T02:12:55;101930.00;;;-4.10
76898;BMP180;65856;52.178;21.176;2023-02-28T02:15:31;101930.00;;;-4.10
76898;BMP180;65856;52.178;21.176;2023-02-28T02:18:09;101929.40;;;-4.10
76898;BMP180;65856;52.178;21.176;2023-02-28T02:21:18;101929.80;;;-4.12
76898;BMP180;65856;52.178;21.176;2023-02-28T02:24:19;101930.20;;;-4.20
76898;BMP180;65856;52.178;21.176;2023-02-28T02:27:19;101923.20;;;-4.30
76898;BMP180;65856;52.178;21.176;2023-02-28T02:30:29;101930.40;;;-4.26
76898;BMP180;65856;52.178;21.176;2023-02-28T02:36:35;101928.60;;;-4.30
76898;BMP180;65856;52.178;21.176;2023-02-28T02:39:16;101929.00;;;-4.30
76898;BMP180;65856;52.178;21.176;2023-02-28T02:41:53;101929.00;;;-4.24
76898;BMP180;65856;52.178;21.176;2023-02-28T02:44:30;101935.60;;;-4.20
76898;BMP180;65856;52.178;21.176;2023-02-28T02:47:06;101939.00;;;-4.20
76898;BMP180;65856;52.178;21.176;2023-02-28T02:49:42;101936.80;;;-4.20
76898;BMP180;65856;52.178;21.176;2023-02-28T02:52:20;101939.60;;;-4.20
76898;BMP180;65856;52.178;21.176;2023-02-28T02:54:55;101938.00;;;-4.26
76898;BMP180;65856;52.178;21.176;2023-02-28T02:57:33;101937.80;;;-4.30
76898;BMP180;65856;52.178;21.176;2023-02-28T03:00:11;101937.80;;;-4.30
76898;BMP180;65856;52.178;21.176;2023-02-28T03:02:44;101942.20;;;-4.30
76898;BMP180;65856;52.178;21.176;2023-02-28T03:05:19;101941.60;;;-4.40
76898;BMP180;65856;52.178;21.176;2023-02-28T03:07:50;101945.40;;;-4.50
76898;BMP180;65856;52.178;21.176;2023-02-28T03:10:38;101949.40;;;-4.50
76898;BMP180;65856;52.178;21.176;2023-02-28T03:13:34;101947.60;;;-4.50
76898;BMP180;65856;52.178;21.176;2023-02-28T03:16:28;101947.60;;;-4.50
76898;BMP180;65856;52.178;21.176;2023-02-28T03:19:15;101941.60;;;-4.60
76898;BMP180;65856;52.178;21.176;2023-02-28T03:22:27;101948.00;;;-4.60
76898;BMP180;65856;52.178;21.176;2023-02-28T03:25:08;101947.60;;;-4.60
76898;BMP180;65856;52.178;21.176;2023-02-28T03:27:45;101949.20;;;-4.60
76898;BMP180;65856;52.178;21.176;2023-02-28T03:30:27;101949.00;;;-4.60
76898;BMP180;65856;52.178;21.176;2023-02-28T03:33:05;101950.20;;;-4.60
76898;BMP180;65856;52.178;21.176;2023-02-28T03:35:40;101948.20;;;-4.60
76898;BMP180;65856;52.178;21.176;2023-02-28T03:38:18;101950.20;;;-4.60
76898;BMP180;65856;52.178;21.176;2023-02-28T03:40:57;101954.40;;;-4.60
76898;BMP180;65856;52.178;21.176;2023-02-28T03:43:36;101953.00;;;-4.52
76898;BMP180;65856;52.178;21.176;2023-02-28T03:46:14;101950.60;;;-4.60
76898;BMP180;65856;52.178;21.176;2023-02-28T03:48:55;101957.80;;;-4.60
76898;BMP180;65856;52.178;21.176;2023-02-28T03:51:31;101952.20;;;-4.60
76898;BMP180;65856;52.178;21.176;2023-02-28T03:54:10;101956.20;;;-4.60
76898;BMP180;65856;52.178;21.176;2023-02-28T03:56:48;101959.40;;;-4.60
76898;BMP180;65856;52.178;21.176;2023-02-28T03:59:28;101961.00;;;-4.60
76898;BMP180;65856;52.178;21.176;2023-02-28T04:02:01;101959.00;;;-4.68
76898;BMP180;65856;52.178;21.176;2023-02-28T04:04:32;101956.80;;;-4.70
76898;BMP180;65856;52.178;21.176;2023-02-28T04:07:09;101961.00;;;-4.78
76898;BMP180;65856;52.178;21.176;2023-02-28T04:09:42;101952.00;;;-4.80
76898;BMP180;65856;52.178;21.176;2023-02-28T04:12:12;101955.80;;;-4.88
76898;BMP180;65856;52.178;21.176;2023-02-28T04:14:43;101954.60;;;-4.80
76898;BMP180;65856;52.178;21.176;2023-02-28T04:17:14;101956.40;;;-4.90
76898;BMP180;65856;52.178;21.176;2023-02-28T04:19:45;101957.80;;;-5.00
76898;BMP180;65856;52.178;21.176;2023-02-28T04:22:16;101962.80;;;-5.00
76898;BMP180;65856;52.178;21.176;2023-02-28T04:24:47;101959.40;;;-5.00
76898;BMP180;65856;52.178;21.176;2023-02-28T04:27:18;101962.00;;;-5.00
76898;BMP180;65856;52.178;21.176;2023-02-28T04:29:49;101956.20;;;-5.00
76898;BMP180;65856;52.178;21.176;2023-02-28T04:32:20;101962.20;;;-5.00
76898;BMP180;65856;52.178;21.176;2023-02-28T04:34:51;101961.00;;;-5.00
76898;BMP180;65856;52.178;21.176;2023-02-28T04:37:21;101964.20;;;-5.00
76898;BMP180;65856;52.178;21.176;2023-02-28T04:39:57;101963.80;;;-5.00
76898;BMP180;65856;52.178;21.176;2023-02-28T04:42:28;101967.80;;;-5.02
76898;BMP180;65856;52.178;21.176;2023-02-28T04:45:06;101967.60;;;-5.00
76898;BMP180;65856;52.178;21.176;2023-02-28T04:47:39;101968.20;;;-5.00
76898;BMP180;65856;52.178;21.176;2023-02-28T04:50:12;101967.40;;;-4.98
76898;BMP180;65856;52.178;21.176;2023-02-28T04:52:43;101963.20;;;-5.10
76898;BMP180;65856;52.178;21.176;2023-02-28T04:55:14;101963.80;;;-5.10
76898;BMP180;65856;52.178;21.176;2023-02-28T04:57:45;101961.80;;;-5.10
76898;BMP180;65856;52.178;21.176;2023-02-28T05:00:17;101961.60;;;-5.10
76898;BMP180;65856;52.178;21.176;2023-02-28T05:02:48;101965.00;;;-5.10
76898;BMP180;65856;52.178;21.176;2023-02-28T05:05:19;101965.20;;;-5.00
76898;BMP180;65856;52.178;21.176;2023-02-28T05:07:50;101973.00;;;-5.02
76898;BMP180;65856;52.178;21.176;2023-02-28T05:10:21;101978.60;;;-5.00
76898;BMP180;65856;52.178;21.176;2023-02-28T05:12:51;101983.80;;;-5.10
76898;BMP180;65856;52.178;21.176;2023-02-28T05:15:22;101984.60;;;-5.10
76898;BMP180;65856;52.178;21.176;2023-02-28T05:17:53;101987.60;;;-5.20
76898;BMP180;65856;52.178;21.176;2023-02-28T05:20:24;101991.80;;;-5.16
76898;BMP180;65856;52.178;21.176;2023-02-28T05:22:55;101991.60;;;-5.10
76898;BMP180;65856;52.178;21.176;2023-02-28T05:25:26;101999.80;;;-5.18
76898;BMP180;65856;52.178;21.176;2023-02-28T05:27:57;102000.80;;;-5.20
76898;BMP180;65856;52.178;21.176;2023-02-28T05:30:28;101995.20;;;-5.20
76898;BMP180;65856;52.178;21.176;2023-02-28T05:32:59;102005.60;;;-5.20
76898;BMP180;65856;52.178;21.176;2023-02-28T05:35:30;102001.00;;;-5.20
76898;BMP180;65856;52.178;21.176;2023-02-28T05:38:01;102006.80;;;-5.20
76898;BMP180;65856;52.178;21.176;2023-02-28T05:40:32;102008.60;;;-5.20
76898;BMP180;65856;52.178;21.176;2023-02-28T05:43:03;102004.60;;;-5.22
76898;BMP180;65856;52.178;21.176;2023-02-28T05:45:34;102011.00;;;-5.30
76898;BMP180;65856;52.178;21.176;2023-02-28T05:48:07;102009.80;;;-5.30
76898;BMP180;65856;52.178;21.176;2023-02-28T05:50:38;102005.60;;;-5.40
76898;BMP180;65856;52.178;21.176;2023-02-28T05:53:09;102012.60;;;-5.36
76898;BMP180;65856;52.178;21.176;2023-02-28T05:55:40;102010.80;;;-5.30
76898;BMP180;65856;52.178;21.176;2023-02-28T05:58:11;102022.80;;;-5.30
76898;BMP180;65856;52.178;21.176;2023-02-28T06:00:42;102019.00;;;-5.20
76898;BMP180;65856;52.178;21.176;2023-02-28T06:03:13;102019.80;;;-5.20
76898;BMP180;65856;52.178;21.176;2023-02-28T06:05:44;102019.60;;;-5.12
76898;BMP180;65856;52.178;21.176;2023-02-28T06:08:14;102025.40;;;-5.06
76898;BMP180;65856;52.178;21.176;2023-02-28T06:10:45;102025.40;;;-4.90
76898;BMP180;65856;52.178;21.176;2023-02-28T06:13:16;102025.80;;;-4.80
76898;BMP180;65856;52.178;21.176;2023-02-28T06:15:47;102028.00;;;-4.68
76898;BMP180;65856;52.178;21.176;2023-02-28T06:18:18;102032.00;;;-4.50
76898;BMP180;65856;52.178;21.176;2023-02-28T06:20:55;102036.60;;;-4.30
76898;BMP180;65856;52.178;21.176;2023-02-28T06:23:26;102026.20;;;-4.10
76898;BMP180;65856;52.178;21.176;2023-02-28T06:25:57;102025.40;;;-3.90
76898;BMP180;65856;52.178;21.176;2023-02-28T06:28:28;102030.00;;;-3.64
76898;BMP180;65856;52.178;21.176;2023-02-28T06:30:59;102025.00;;;-3.40
76898;BMP180;65856;52.178;21.176;2023-02-28T06:33:30;102028.20;;;-3.10
76898;BMP180;65856;52.178;21.176;2023-02-28T06:36:01;102027.00;;;-2.90
76898;BMP180;65856;52.178;21.176;2023-02-28T06:38:32;102035.60;;;-2.60
76898;BMP180;65856;52.178;21.176;2023-02-28T06:41:04;102024.40;;;-2.36
76898;BMP180;65856;52.178;21.176;2023-02-28T06:43:39;102027.60;;;-1.96
76898;BMP180;65856;52.178;21.176;2023-02-28T06:46:13;102019.60;;;-1.50
76898;BMP180;65856;52.178;21.176;2023-02-28T06:48:44;102017.80;;;-1.30
76898;BMP180;65856;52.178;21.176;2023-02-28T06:51:19;102017.40;;;-1.10
76898;BMP180;65856;52.178;21.176;2023-02-28T06:53:51;102014.80;;;-0.72
76898;BMP180;65856;52.178;21.176;2023-02-28T06:56:22;102017.00;;;-0.30
76898;BMP180;65856;52.178;21.176;2023-02-28T06:58:53;102010.00;;;0.10
76898;BMP180;65856;52.178;21.176;2023-02-28T07:01:25;102015.40;;;0.30
76898;BMP180;65856;52.178;21.176;2023-02-28T07:03:57;102014.80;;;0.58
76898;BMP180;65856;52.178;21.176;2023-02-28T07:06:30;102010.20;;;0.80
76898;BMP180;65856;52.178;21.176;2023-02-28T07:09:01;102010.60;;;1.10
76898;BMP180;65856;52.178;21.176;2023-02-28T07:11:32;102001.20;;;1.32
76898;BMP180;65856;52.178;21.176;2023-02-28T07:14:02;102007.60;;;1.60
76898;BMP180;65856;52.178;21.176;2023-02-28T07:16:34;102006.80;;;1.80
76898;BMP180;65856;52.178;21.176;2023-02-28T07:19:04;102008.40;;;2.00
76898;BMP180;65856;52.178;21.176;2023-02-28T07:21:35;102010.80;;;2.16
76898;BMP180;65856;52.178;21.176;2023-02-28T07:24:06;102005.20;;;2.38
76898;BMP180;65856;52.178;21.176;2023-02-28T07:26:36;102008.80;;;2.68
76898;BMP180;65856;52.178;21.176;2023-02-28T07:29:07;102005.60;;;2.80
76898;BMP180;65856;52.178;21.176;2023-02-28T07:31:37;102009.80;;;3.02
76898;BMP180;65856;52.178;21.176;2023-02-28T07:34:08;102008.00;;;3.42
76898;BMP180;65856;52.178;21.176;2023-02-28T07:36:39;102004.40;;;3.70
76898;BMP180;65856;52.178;21.176;2023-02-28T07:39:10;102004.00;;;3.92
76898;BMP180;65856;52.178;21.176;2023-02-28T07:41:41;101999.40;;;4.20
76898;BMP180;65856;52.178;21.176;2023-02-28T07:44:14;102003.80;;;4.48
76898;BMP180;65856;52.178;21.176;2023-02-28T07:46:45;102001.00;;;4.80
76898;BMP180;65856;52.178;21.176;2023-02-28T07:49:15;102000.80;;;5.00
76898;BMP180;65856;52.178;21.176;2023-02-28T07:51:46;102007.80;;;5.22
76898;BMP180;65856;52.178;21.176;2023-02-28T07:54:17;102010.40;;;5.40
76898;BMP180;65856;52.178;21.176;2023-02-28T07:56:48;102013.80;;;5.50
76898;BMP180;65856;52.178;21.176;2023-02-28T07:59:19;102017.60;;;5.60
76898;BMP180;65856;52.178;21.176;2023-02-28T08:01:50;102017.60;;;5.54
76898;BMP180;65856;52.178;21.176;2023-02-28T08:04:21;102013.60;;;5.50
76898;BMP180;65856;52.178;21.176;2023-02-28T08:06:51;102012.00;;;5.60
76898;BMP180;65856;52.178;21.176;2023-02-28T08:09:22;102023.00;;;5.74
76898;BMP180;65856;52.178;21.176;2023-02-28T08:11:53;102019.60;;;5.80
76898;BMP180;65856;52.178;21.176;2023-02-28T08:14:25;102022.00;;;5.80
76898;BMP180;65856;52.178;21.176;2023-02-28T08:16:56;102025.60;;;6.00
76898;BMP180;65856;52.178;21.176;2023-02-28T08:19:27;102022.40;;;6.20
76898;BMP180;65856;52.178;21.176;2023-02-28T08:21:58;102027.00;;;6.42
76898;BMP180;65856;52.178;21.176;2023-02-28T08:24:29;102014.60;;;6.60
76898;BMP180;65856;52.178;21.176;2023-02-28T08:27:00;102011.60;;;6.70
76898;BMP180;65856;52.178;21.176;2023-02-28T08:29:31;102016.40;;;6.76
76898;BMP180;65856;52.178;21.176;2023-02-28T08:32:02;102023.20;;;6.90
76898;BMP180;65856;52.178;21.176;2023-02-28T08:34:33;102016.80;;;6.90
76898;BMP180;65856;52.178;21.176;2023-02-28T08:37:04;102014.00;;;6.80
76898;BMP180;65856;52.178;21.176;2023-02-28T08:39:37;102019.60;;;6.80
76898;BMP180;65856;52.178;21.176;2023-02-28T08:42:08;102016.20;;;6.80
76898;BMP180;65856;52.178;21.176;2023-02-28T08:44:38;102019.60;;;7.00
76898;BMP180;65856;52.178;21.176;2023-02-28T08:47:09;102019.60;;;7.08
76898;BMP180;65856;52.178;21.176;2023-02-28T08:49:40;102021.80;;;7.10
76898;BMP180;65856;52.178;21.176;2023-02-28T08:52:11;102029.20;;;7.18
76898;BMP180;65856;52.178;21.176;2023-02-28T08:54:42;102031.80;;;7.30
76898;BMP180;65856;52.178;21.176;2023-02-28T08:57:13;102032.60;;;7.30
76898;BMP180;65856;52.178;21.176;2023-02-28T08:59:44;102030.40;;;7.20
76898;BMP180;65856;52.178;21.176;2023-02-28T09:02:15;102029.80;;;7.30
76898;BMP180;65856;52.178;21.176;2023-02-28T09:04:46;102035.20;;;7.30
76898;BMP180;65856;52.178;21.176;2023-02-28T09:07:17;102032.00;;;7.24
76898;BMP180;65856;52.178;21.176;2023-02-28T09:09:48;102035.60;;;7.00
76898;BMP180;65856;52.178;21.176;2023-02-28T09:12:26;102035.00;;;7.10
76898;BMP180;65856;52.178;21.176;2023-02-28T09:14:57;102038.80;;;7.10
76898;BMP180;65856;52.178;21.176;2023-02-28T09:17:28;102035.80;;;7.00
76898;BMP180;65856;52.178;21.176;2023-02-28T09:19:59;102037.60;;;7.00
76898;BMP180;65856;52.178;21.176;2023-02-28T09:22:30;102038.80;;;7.10
76898;BMP180;65856;52.178;21.176;2023-02-28T09:25:02;102051.00;;;7.20
76898;BMP180;65856;52.178;21.176;2023-02-28T09:27:32;102049.40;;;7.00
76898;BMP180;65856;52.178;21.176;2023-02-28T09:30:04;102045.80;;;6.84
76898;BMP180;65856;52.178;21.176;2023-02-28T09:32:35;102050.00;;;6.90
76898;BMP180;65856;52.178;21.176;2023-02-28T09:35:08;102046.40;;;6.90
76898;BMP180;65856;52.178;21.176;2023-02-28T09:37:42;102051.20;;;6.98
76898;BMP180;65856;52.178;21.176;2023-02-28T09:40:15;102047.40;;;7.00
76898;BMP180;65856;52.178;21.176;2023-02-28T09:42:52;102049.00;;;6.90
76898;BMP180;65856;52.178;21.176;2023-02-28T09:45:26;102043.80;;;6.70
76898;BMP180;65856;52.178;21.176;2023-02-28T09:48:06;102046.80;;;6.74
76898;BMP180;65856;52.178;21.176;2023-02-28T09:50:43;102042.00;;;6.70
76898;BMP180;65856;52.178;21.176;2023-02-28T09:53:26;102046.00;;;6.60
76898;BMP180;65856;52.178;21.176;2023-02-28T09:56:01;102043.60;;;6.60
76898;BMP180;65856;52.178;21.176;2023-02-28T09:58:39;102045.20;;;6.64
76898;BMP180;65856;52.178;21.176;2023-02-28T10:01:21;102040.60;;;6.72
76898;BMP180;65856;52.178;21.176;2023-02-28T10:04:00;102044.00;;;6.60
76898;BMP180;65856;52.178;21.176;2023-02-28T10:06:44;102050.80;;;6.60
76898;BMP180;65856;52.178;21.176;2023-02-28T10:09:21;102052.00;;;6.40
76898;BMP180;65856;52.178;21.176;2023-02-28T10:11:59;102047.40;;;6.24
76898;BMP180;65856;52.178;21.176;2023-02-28T10:14:35;102051.00;;;6.20
76898;BMP180;65856;52.178;21.176;2023-02-28T10:17:16;102059.20;;;6.10
76898;BMP180;65856;52.178;21.176;2023-02-28T10:20:00;102056.80;;;6.10
76898;BMP180;65856;52.178;21.176;2023-02-28T10:22:49;102054.80;;;6.00
76898;BMP180;65856;52.178;21.176;2023-02-28T10:25:24;102056.00;;;6.00
76898;BMP180;65856;52.178;21.176;2023-02-28T10:28:00;102053.80;;;5.90
76898;BMP180;65856;52.178;21.176;2023-02-28T10:30:32;102051.60;;;5.80
76898;BMP180;65856;52.178;21.176;2023-02-28T10:33:03;102049.40;;;5.80
76898;BMP180;65856;52.178;21.176;2023-02-28T10:35:34;102050.00;;;5.70
76898;BMP180;65856;52.178;21.176;2023-02-28T10:38:20;102050.80;;;5.70
76898;BMP180;65856;52.178;21.176;2023-02-28T10:40:52;102051.60;;;5.70
76898;BMP180;65856;52.178;21.176;2023-02-28T10:43:33;102047.80;;;5.70
76898;BMP180;65856;52.178;21.176;2023-02-28T10:46:15;102051.60;;;5.70
76898;BMP180;65856;52.178;21.176;2023-02-28T10:49:07;102045.40;;;5.60
76898;BMP180;65856;52.178;21.176;2023-02-28T10:51:43;102039.60;;;5.60
76898;BMP180;65856;52.178;21.176;2023-02-28T10:54:22;102040.40;;;5.50
76898;BMP180;65856;52.178;21.176;2023-02-28T10:57:17;102043.00;;;5.50
76898;BMP180;65856;52.178;21.176;2023-02-28T11:00:05;102042.40;;;5.40
76898;BMP180;65856;52.178;21.176;2023-02-28T11:02:38;102039.80;;;5.40
76898;BMP180;65856;52.178;21.176;2023-02-28T11:05:30;102038.20;;;5.40
76898;BMP180;65856;52.178;21.176;2023-02-28T11:08:13;102036.80;;;5.42
76898;BMP180;65856;52.178;21.176;2023-02-28T11:10:48;102036.40;;;5.40
76898;BMP180;65856;52.178;21.176;2023-02-28T11:13:27;102025.40;;;5.42
76898;BMP180;65856;52.178;21.176;2023-02-28T11:16:04;102026.80;;;5.40
76898;BMP180;65856;52.178;21.176;2023-02-28T11:18:42;102018.40;;;5.30
76898;BMP180;65856;52.178;21.176;2023-02-28T11:21:21;102012.00;;;5.20
76898;BMP180;65856;52.178;21.176;2023-02-28T11:23:59;102009.80;;;5.26
76898;BMP180;65856;52.178;21.176;2023-02-28T11:26:44;102004.20;;;5.38
76898;BMP180;65856;52.178;21.176;2023-02-28T11:29:22;101993.20;;;5.50
76898;BMP180;65856;52.178;21.176;2023-02-28T11:32:12;101995.80;;;5.50
76898;BMP180;65856;52.178;21.176;2023-02-28T11:34:44;101991.00;;;5.60
76898;BMP180;65856;52.178;21.176;2023-02-28T11:37:15;101987.00;;;5.44
76898;BMP180;65856;52.178;21.176;2023-02-28T11:39:48;101985.40;;;5.40
76898;BMP180;65856;52.178;21.176;2023-02-28T11:42:34;101985.80;;;5.30
76898;BMP180;65856;52.178;21.176;2023-02-28T11:45:27;101981.80;;;5.20
76898;BMP180;65856;52.178;21.176;2023-02-28T11:48:04;101976.20;;;5.10
76898;BMP180;65856;52.178;21.176;2023-02-28T11:50:57;101969.60;;;5.00
76898;BMP180;65856;52.178;21.176;2023-02-28T11:54:00;101965.00;;;4.96
76898;BMP180;65856;52.178;21.176;2023-02-28T11:56:41;101968.00;;;5.00
76898;BMP180;65856;52.178;21.176;2023-02-28T11:59:38;101962.20;;;5.00
76898;BMP180;65856;52.178;21.176;2023-02-28T12:02:30;101959.80;;;5.00
76898;BMP180;65856;52.178;21.176;2023-02-28T12:05:22;101952.80;;;5.00
76898;BMP180;65856;52.178;21.176;2023-02-28T12:08:06;101960.20;;;5.00
76898;BMP180;65856;52.178;21.176;2023-02-28T12:10:57;101954.60;;;5.00
76898;BMP180;65856;52.178;21.176;2023-02-28T12:13:48;101955.20;;;5.00
76898;BMP180;65856;52.178;21.176;2023-02-28T12:16:39;101950.20;;;5.00
76898;BMP180;65856;52.178;21.176;2023-02-28T12:19:21;101950.60;;;5.00
76898;BMP180;65856;52.178;21.176;2023-02-28T12:22:22;101949.00;;;5.00
76898;BMP180;65856;52.178;21.176;2023-02-28T12:25:37;101945.80;;;4.92
76898;BMP180;65856;52.178;21.176;2023-02-28T12:28:13;101941.80;;;4.90
76898;BMP180;65856;52.178;21.176;2023-02-28T12:30:53;101936.40;;;4.76
76898;BMP180;65856;52.178;21.176;2023-02-28T12:33:34;101937.20;;;4.66
76898;BMP180;65856;52.178;21.176;2023-02-28T12:36:11;101926.60;;;4.52
76898;BMP180;65856;52.178;21.176;2023-02-28T12:38:50;101922.60;;;4.50
76898;BMP180;65856;52.178;21.176;2023-02-28T12:41:29;101923.80;;;4.50
76898;BMP180;65856;52.178;21.176;2023-02-28T12:44:09;101924.20;;;4.50
76898;BMP180;65856;52.178;21.176;2023-02-28T12:46:46;101919.40;;;4.48
76898;BMP180;65856;52.178;21.176;2023-02-28T12:49:27;101923.40;;;4.40
76898;BMP180;65856;52.178;21.176;2023-02-28T12:52:00;101916.20;;;4.40
76898;BMP180;65856;52.178;21.176;2023-02-28T12:54:40;101913.20;;;4.36
76898;BMP180;65856;52.178;21.176;2023-02-28T12:57:22;101913.00;;;4.40
76898;BMP180;65856;52.178;21.176;2023-02-28T12:59:59;101916.00;;;4.40
76898;BMP180;65856;52.178;21.176;2023-02-28T13:06:14;101918.20;;;4.40
76898;BMP180;65856;52.178;21.176;2023-02-28T13:09:09;101912.40;;;4.40
76898;BMP180;65856;52.178;21.176;2023-02-28T13:11:47;101911.00;;;4.40
76898;BMP180;65856;52.178;21.176;2023-02-28T13:14:29;101906.40;;;4.30
76898;BMP180;65856;52.178;21.176;2023-02-28T13:17:02;101893.80;;;4.20
76898;BMP180;65856;52.178;21.176;2023-02-28T13:19:36;101895.20;;;4.10
76898;BMP180;65856;52.178;21.176;2023-02-28T13:22:18;101892.60;;;4.10
76898;BMP180;65856;52.178;21.176;2023-02-28T13:24:52;101891.40;;;4.10
76898;BMP180;65856;52.178;21.176;2023-02-28T13:27:37;101887.60;;;4.10
76898;BMP180;65856;52.178;21.176;2023-02-28T13:31:01;101882.80;;;4.20
76898;BMP180;65856;52.178;21.176;2023-02-28T13:33:33;101880.80;;;4.20
76898;BMP180;65856;52.178;21.176;2023-02-28T13:36:26;101880.80;;;4.20
76898;BMP180;65856;52.178;21.176;2023-02-28T13:38:59;101881.00;;;4.28
76898;BMP180;65856;52.178;21.176;2023-02-28T13:48:32;101862.60;;;4.32
76898;BMP180;65856;52.178;21.176;2023-02-28T13:51:00;101858.40;;;4.30
76898;BMP180;65856;52.178;21.176;2023-02-28T13:54:03;101856.40;;;4.40
76898;BMP180;65856;52.178;21.176;2023-02-28T13:56:44;101853.40;;;4.40
76898;BMP180;65856;52.178;21.176;2023-02-28T13:59:23;101848.40;;;4.40
76898;BMP180;65856;52.178;21.176;2023-02-28T14:02:21;101848.40;;;4.40
76898;BMP180;65856;52.178;21.176;2023-02-28T14:05:04;101842.60;;;4.30
76898;BMP180;65856;52.178;21.176;2023-02-28T14:07:36;101836.20;;;4.30
76898;BMP180;65856;52.178;21.176;2023-02-28T14:10:20;101837.60;;;4.30
76898;BMP180;65856;52.178;21.176;2023-02-28T14:13:01;101833.60;;;4.30
76898;BMP180;65856;52.178;21.176;2023-02-28T14:15:45;101835.00;;;4.24
76898;BMP180;65856;52.178;21.176;2023-02-28T14:18:22;101834.40;;;4.30
76898;BMP180;65856;52.178;21.176;2023-02-28T14:20:57;101832.00;;;4.30
76898;BMP180;65856;52.178;21.176;2023-02-28T14:23:56;101827.00;;;4.30
76898;BMP180;65856;52.178;21.176;2023-02-28T14:26:51;101818.20;;;4.20
76898;BMP180;65856;52.178;21.176;2023-02-28T14:30:12;101819.60;;;4.20
76898;BMP180;65856;52.178;21.176;2023-02-28T14:32:51;101821.60;;;4.20
76898;BMP180;65856;52.178;21.176;2023-02-28T14:35:51;101823.40;;;4.28
76898;BMP180;65856;52.178;21.176;2023-02-28T14:38:31;101820.60;;;4.34
76898;BMP180;65856;52.178;21.176;2023-02-28T14:41:04;101819.20;;;4.30
76898;BMP180;65856;52.178;21.176;2023-02-28T14:43:34;101821.00;;;4.30
76898;BMP180;65856;52.178;21.176;2023-02-28T14:46:04;101817.40;;;4.20
76898;BMP180;65856;52.178;21.176;2023-02-28T14:48:36;101812.60;;;4.20
76898;BMP180;65856;52.178;21.176;2023-02-28T14:51:05;101814.60;;;4.20
76898;BMP180;65856;52.178;21.176;2023-02-28T14:53:38;101812.20;;;4.20
76898;BMP180;65856;52.178;21.176;2023-02-28T14:56:19;101811.80;;;4.20